Startpagina
METAR-TAF:

METAR-TAF

Vliegvelden :

Aéroport Nice Côte d'Azur

Nice, Frankrijk

breedte: 43-39N, lengte: 007-12E, hoogte: 4 m

Actueel weer

Dit bericht is 27 minuten geleden gemaakt, om 20:30 UTC
Wind 6 kt uit het noordwesten
Temperatuur 11°C
Vochtigheid 87%
Druk 1025 hPa
Zicht 10 km of meer
Weinig wolken op 1400 ft

METAR: LFMN 232030Z 32006KT 9999 FEW014 11/09 Q1025 NOSIG

Tijdstip: 21:57 (20:57 UTC)

Verwachting

Dit bericht is 57 minuten geleden gemaakt, om 20:00 UTC
Verwachting geldig van 23 om 21 UTC tot 25 om 03 UTC
Wind 7 kt uit het noordwesten
Zicht 10 km of meer
Weinig wolken op 1400 ft
Kans 40% :
Tijdelijke
van 23 om 21 UTC tot 25 om 03 UTC
Gebroken wolken op 1000 ft

TAF: LFMN 232000Z 2321/2503 32007KT 9999 FEW014 PROB40 TEMPO 2321/2503 BKN010

Waarnemingen en weersverwachtingen van meer dan 4000 vliegvelden (METAR en TAF).

De beschikbare stations zijn de gele en rode punten op de kaart.

Ga met uw muis naar het station om de naam te zien.

Klik dan om waarnemingen en weersverwachtingen te zien.

kaart wijzigen: klik op de groene knoppen met een zwart kruis om in te zoomen, op de groene knop met een streepje om uit te zoomen of op de groene pijlen voor aangrenzende kaarten.


METAR-TAF: